createdAt,value
2023-03-20T00:09:06.859Z,86.0
2023-03-20T00:24:05.840Z,87.0
2023-03-20T00:38:05.857Z,87.0
2023-03-20T00:52:05.880Z,88.0
2023-03-20T01:06:05.920Z,88.0
2023-03-20T01:20:05.912Z,89.0
2023-03-20T01:34:06.040Z,90.0
2023-03-20T01:48:05.938Z,90.0
2023-03-20T02:02:05.971Z,90.0
2023-03-20T02:16:05.972Z,91.0
2023-03-20T02:30:06.000Z,90.0
2023-03-20T02:44:05.996Z,90.0
2023-03-20T02:58:05.997Z,90.0
2023-03-20T03:12:06.020Z,90.0
2023-03-20T03:26:06.033Z,90.0
2023-03-20T03:40:06.035Z,87.0
2023-03-20T03:54:06.046Z,86.0
2023-03-20T04:08:06.057Z,87.0
2023-03-20T04:22:06.070Z,83.0
2023-03-20T04:36:06.164Z,84.0
2023-03-20T04:50:06.096Z,85.0
2023-03-20T05:04:06.208Z,85.0
2023-03-20T05:18:06.120Z,87.0
2023-03-20T05:33:06.188Z,86.0
2023-03-20T05:48:06.186Z,86.0
2023-03-20T06:04:06.273Z,85.0
2023-03-20T06:19:06.197Z,86.0
2023-03-20T06:34:06.210Z,85.0
2023-03-20T06:49:06.357Z,86.0
2023-03-20T07:04:06.355Z,85.0
2023-03-20T07:19:06.277Z,83.0
2023-03-20T07:34:06.292Z,73.0
2023-03-20T07:49:06.286Z,73.0
2023-03-20T08:03:06.378Z,71.0
2023-03-20T08:17:14.728Z,69.0
2023-03-20T08:31:06.363Z,66.0
2023-03-20T08:45:06.454Z,61.0
2023-03-20T08:59:06.374Z,60.0
2023-03-20T09:13:25.587Z,59.0
2023-03-20T09:27:06.394Z,59.0
2023-03-20T09:41:06.370Z,57.0
2023-03-20T09:55:06.579Z,56.0
2023-03-20T10:09:06.419Z,55.0
2023-03-20T10:23:06.441Z,56.0
2023-03-20T10:37:06.435Z,55.0
2023-03-20T10:51:06.440Z,53.0
2023-03-20T11:05:06.577Z,52.0
2023-03-20T11:19:06.474Z,52.0
2023-03-20T11:33:06.504Z,50.0
2023-03-20T11:48:06.528Z,51.0
2023-03-20T12:03:06.677Z,53.0
2023-03-20T12:18:06.659Z,54.0
2023-03-20T12:33:06.625Z,52.0
2023-03-20T12:48:06.599Z,53.0
2023-03-20T13:03:06.655Z,55.0
2023-03-20T13:18:06.592Z,55.0
2023-03-20T13:33:06.667Z,54.0
2023-03-20T13:48:06.621Z,54.0
2023-03-20T14:03:06.611Z,55.0
2023-03-20T14:18:06.680Z,52.0
2023-03-20T14:33:06.754Z,52.0
2023-03-20T14:48:06.694Z,56.0
2023-03-20T15:03:06.721Z,60.0
2023-03-20T15:18:06.924Z,59.0
2023-03-20T15:33:06.760Z,61.0
2023-03-20T15:48:06.716Z,60.0
2023-03-20T16:03:06.734Z,62.0
2023-03-20T16:18:06.755Z,64.0
2023-03-20T16:33:06.783Z,66.0
2023-03-20T16:48:06.787Z,71.0
2023-03-20T17:03:06.924Z,75.0
2023-03-20T17:18:06.825Z,79.0
2023-03-20T17:34:06.862Z,81.0
2023-03-20T17:49:06.865Z,84.0
2023-03-20T18:04:06.873Z,87.0
2023-03-20T18:19:06.889Z,88.0
2023-03-20T18:33:06.984Z,88.0
2023-03-20T18:48:07.035Z,89.0
2023-03-20T19:02:06.953Z,89.0
2023-03-20T19:16:06.952Z,91.0
2023-03-20T19:30:07.059Z,91.0
2023-03-20T19:44:07.176Z,92.0
2023-03-20T19:58:06.986Z,92.0
2023-03-20T20:12:06.993Z,93.0
2023-03-20T20:26:07.523Z,93.0
2023-03-20T20:40:07.041Z,93.0
2023-03-20T20:54:07.029Z,94.0
2023-03-20T21:08:07.035Z,94.0
2023-03-20T21:22:07.048Z,94.0
2023-03-20T21:36:07.103Z,95.0
2023-03-20T21:50:49.397Z,95.0
2023-03-20T22:05:01.222Z,96.0
2023-03-20T22:33:11.478Z,95.0
2023-03-20T22:46:22.887Z,95.0
2023-03-20T23:00:07.256Z,96.0
2023-03-20T23:14:14.698Z,96.0
2023-03-20T23:28:07.161Z,97.0
2023-03-20T23:42:17.564Z,94.0
2023-03-20T23:56:07.196Z,94.0
